createdAt,value
2022-12-08T00:00:38.587Z,21.67
2022-12-08T00:03:05.118Z,20.13
2022-12-08T00:05:50.011Z,20.50
2022-12-08T00:08:34.783Z,20.92
2022-12-08T00:11:01.213Z,20.65
2022-12-08T00:13:27.562Z,21.17
2022-12-08T00:16:00.161Z,21.08
2022-12-08T00:18:26.529Z,21.98
2022-12-08T00:21:02.037Z,21.92
2022-12-08T00:23:28.516Z,22.27
2022-12-08T00:25:54.891Z,22.95
2022-12-08T00:28:21.437Z,22.80
2022-12-08T00:30:47.871Z,23.20
2022-12-08T00:33:14.259Z,23.88
2022-12-08T00:35:43.297Z,24.73
2022-12-08T00:38:09.905Z,22.75
2022-12-08T00:40:36.380Z,22.52
2022-12-08T00:43:02.779Z,22.08
2022-12-08T00:45:29.214Z,22.75
2022-12-08T00:47:55.618Z,21.75
2022-12-08T00:50:22.031Z,21.50
2022-12-08T00:52:48.407Z,22.55
2022-12-08T00:55:14.826Z,20.20
2022-12-08T00:57:41.216Z,20.05
2022-12-08T01:00:08.240Z,19.17
2022-12-08T01:02:34.845Z,20.40
2022-12-08T01:05:01.385Z,19.80
2022-12-08T01:07:27.819Z,19.67
2022-12-08T01:09:54.390Z,19.80
2022-12-08T01:12:20.828Z,19.80
2022-12-08T01:14:47.232Z,19.63
2022-12-08T01:17:13.664Z,20.25
2022-12-08T01:19:40.136Z,22.38
2022-12-08T01:22:06.624Z,21.95
2022-12-08T01:24:33.056Z,22.23
2022-12-08T01:26:59.470Z,23.35
2022-12-08T01:29:26.793Z,23.08
2022-12-08T01:31:53.329Z,23.08
2022-12-08T01:34:19.691Z,24.02
2022-12-08T01:36:46.107Z,24.67
2022-12-08T01:39:15.708Z,26.52
2022-12-08T01:41:43.756Z,25.67
2022-12-08T01:44:10.757Z,26.95
2022-12-08T01:46:48.794Z,26.55
2022-12-08T01:49:23.382Z,26.33
2022-12-08T01:51:59.362Z,26.67
2022-12-08T01:54:32.109Z,25.65
2022-12-08T01:57:07.076Z,26.30
2022-12-08T01:59:36.321Z,25.13
2022-12-08T02:02:02.793Z,26.05
2022-12-08T02:04:30.199Z,24.88
2022-12-08T02:06:56.689Z,24.63
2022-12-08T02:09:23.079Z,25.42
2022-12-08T02:11:50.432Z,25.25
2022-12-08T02:14:16.819Z,24.48
2022-12-08T02:16:56.401Z,25.27
2022-12-08T02:19:44.700Z,25.20
2022-12-08T02:22:24.665Z,26.20
2022-12-08T02:25:26.655Z,26.90
2022-12-08T02:28:05.076Z,27.48
2022-12-08T02:30:51.349Z,27.77
2022-12-08T02:33:45.738Z,29.08
2022-12-08T02:36:16.854Z,28.05
2022-12-08T02:38:45.851Z,28.00
2022-12-08T02:41:19.243Z,29.13
2022-12-08T02:43:48.715Z,29.20
2022-12-08T02:46:22.203Z,29.52
2022-12-08T02:48:51.020Z,29.13
2022-12-08T02:51:19.050Z,29.25
2022-12-08T02:53:45.571Z,29.27
2022-12-08T02:56:34.995Z,29.50
2022-12-08T02:59:09.989Z,28.23
2022-12-08T03:01:44.665Z,26.70
2022-12-08T03:04:22.746Z,26.73
2022-12-08T03:06:55.553Z,26.77
2022-12-08T03:09:33.830Z,25.58
2022-12-08T03:12:15.926Z,25.45
2022-12-08T03:14:46.783Z,25.65
2022-12-08T03:17:14.012Z,25.92
2022-12-08T03:19:42.152Z,24.25
2022-12-08T03:22:09.304Z,24.77
2022-12-08T03:24:41.225Z,25.65
2022-12-08T03:27:13.557Z,23.25
2022-12-08T03:29:40.233Z,23.38
2022-12-08T03:32:51.298Z,23.70
2022-12-08T03:35:20.334Z,22.75
2022-12-08T03:37:46.767Z,22.92
2022-12-08T03:40:16.476Z,23.45
2022-12-08T03:42:42.868Z,23.00
2022-12-08T03:45:09.626Z,22.23
2022-12-08T03:47:36.257Z,24.63
2022-12-08T03:50:02.875Z,23.63
2022-12-08T03:52:29.508Z,22.70
2022-12-08T03:54:55.973Z,22.85
2022-12-08T03:57:22.392Z,21.88
2022-12-08T03:59:48.832Z,22.65
2022-12-08T04:02:15.375Z,21.52
2022-12-08T04:04:41.779Z,20.50
2022-12-08T04:07:08.198Z,21.50
2022-12-08T04:09:34.583Z,21.42
2022-12-08T04:12:00.987Z,21.92
2022-12-08T04:14:27.418Z,22.55
2022-12-08T04:16:53.801Z,21.25
2022-12-08T04:19:20.230Z,22.70
2022-12-08T04:21:46.639Z,21.38
2022-12-08T04:24:13.088Z,21.70
2022-12-08T04:26:39.451Z,22.52
2022-12-08T04:29:05.882Z,22.35
2022-12-08T04:31:32.459Z,22.00
2022-12-08T04:33:58.935Z,23.40
2022-12-08T04:36:25.356Z,23.63
2022-12-08T04:38:51.765Z,22.98
2022-12-08T04:41:18.271Z,22.75
2022-12-08T04:43:44.692Z,21.55
2022-12-08T04:46:11.490Z,20.95
2022-12-08T04:48:39.228Z,21.92
2022-12-08T04:51:06.052Z,20.77
2022-12-08T04:53:32.588Z,20.25
2022-12-08T04:55:59.063Z,18.80
2022-12-08T04:58:25.436Z,19.42
2022-12-08T05:00:51.921Z,19.08
2022-12-08T05:03:19.668Z,19.33
2022-12-08T05:05:49.116Z,18.92
2022-12-08T05:08:15.641Z,19.88
2022-12-08T05:10:42.062Z,20.67
2022-12-08T05:13:08.555Z,21.58
2022-12-08T05:15:34.926Z,23.65
2022-12-08T05:18:01.318Z,23.60
2022-12-08T05:20:27.809Z,24.42
2022-12-08T05:22:54.192Z,26.77
2022-12-08T05:25:20.601Z,26.75
2022-12-08T05:27:46.983Z,28.48
2022-12-08T05:30:13.494Z,28.08
2022-12-08T05:32:39.977Z,29.08
2022-12-08T05:35:06.822Z,31.52
2022-12-08T05:37:33.513Z,30.05
2022-12-08T05:40:00.006Z,31.38
2022-12-08T05:42:26.378Z,30.60
2022-12-08T05:44:52.776Z,31.65
2022-12-08T05:47:19.322Z,30.67
2022-12-08T05:49:45.767Z,31.48
2022-12-08T05:52:12.146Z,31.52
2022-12-08T05:54:39.303Z,31.80
2022-12-08T05:57:05.684Z,30.15
2022-12-08T05:59:32.158Z,31.45
2022-12-08T06:01:58.773Z,32.08
2022-12-08T06:04:25.264Z,31.80
2022-12-08T06:06:51.695Z,30.05
2022-12-08T06:09:18.059Z,30.85
2022-12-08T06:11:47.060Z,30.88
2022-12-08T06:14:13.641Z,31.10
2022-12-08T06:16:40.180Z,29.73
2022-12-08T06:19:06.663Z,28.40
2022-12-08T06:21:33.114Z,27.52
2022-12-08T06:23:59.712Z,27.67
2022-12-08T06:26:26.206Z,27.40
2022-12-08T06:28:53.194Z,28.08
2022-12-08T06:31:24.402Z,26.92
2022-12-08T06:33:51.516Z,27.25
2022-12-08T06:36:21.299Z,25.38
2022-12-08T06:38:48.429Z,26.35
2022-12-08T06:41:14.919Z,27.02
2022-12-08T06:43:41.552Z,29.02
2022-12-08T06:46:10.458Z,28.88
2022-12-08T06:48:36.968Z,28.10
2022-12-08T06:51:10.272Z,29.70
2022-12-08T06:53:36.947Z,29.90
2022-12-08T06:56:03.528Z,29.60
2022-12-08T06:58:30.101Z,30.08
2022-12-08T07:00:56.552Z,31.65
2022-12-08T07:03:22.960Z,31.65
2022-12-08T07:05:49.328Z,30.92
2022-12-08T07:08:15.954Z,31.65
2022-12-08T07:10:42.484Z,30.50
2022-12-08T07:13:09.017Z,31.83
2022-12-08T07:15:35.394Z,31.35
2022-12-08T07:18:01.806Z,31.48
2022-12-08T07:20:28.358Z,30.08
2022-12-08T07:22:54.915Z,30.48
2022-12-08T07:25:22.151Z,32.47
2022-12-08T07:27:51.197Z,30.98
2022-12-08T07:30:17.602Z,31.08
2022-12-08T07:32:43.971Z,30.88
2022-12-08T07:35:10.688Z,30.20
2022-12-08T07:37:37.724Z,30.30
2022-12-08T07:40:06.629Z,29.15
2022-12-08T07:42:33.446Z,28.98
2022-12-08T07:45:00.543Z,27.90
2022-12-08T07:47:26.974Z,28.85
2022-12-08T07:49:53.450Z,27.65
2022-12-08T07:52:19.855Z,26.58
2022-12-08T07:54:47.216Z,27.42
2022-12-08T07:57:13.660Z,28.05
2022-12-08T07:59:40.094Z,25.05
2022-12-08T08:02:23.496Z,26.98
2022-12-08T08:04:51.618Z,25.05
2022-12-08T08:07:18.211Z,23.05
2022-12-08T08:09:45.625Z,22.98
2022-12-08T08:12:30.668Z,21.55
2022-12-08T08:14:58.227Z,22.88
2022-12-08T08:17:24.794Z,22.00
2022-12-08T08:19:51.370Z,21.58
2022-12-08T08:22:17.776Z,22.60
2022-12-08T08:24:45.198Z,23.25
2022-12-08T08:27:11.857Z,23.20
2022-12-08T08:29:38.303Z,23.10
2022-12-08T08:32:04.916Z,24.17
2022-12-08T08:34:31.336Z,24.55
2022-12-08T08:36:57.811Z,24.90
2022-12-08T08:39:24.270Z,24.52
2022-12-08T08:41:50.716Z,24.55
2022-12-08T08:44:17.189Z,24.73
2022-12-08T08:46:43.657Z,25.48
2022-12-08T08:49:10.093Z,24.25
2022-12-08T08:51:36.695Z,25.05
2022-12-08T08:54:03.175Z,25.02
2022-12-08T08:56:29.650Z,24.73
2022-12-08T08:58:56.275Z,25.98
2022-12-08T09:01:26.238Z,25.52
2022-12-08T09:03:53.057Z,25.52
2022-12-08T09:06:20.033Z,24.70
2022-12-08T09:08:47.416Z,25.00
2022-12-08T09:11:14.168Z,25.05
2022-12-08T09:13:40.592Z,25.45
2022-12-08T09:16:08.643Z,26.67
2022-12-08T09:18:35.242Z,25.25
2022-12-08T09:21:09.912Z,25.48
2022-12-08T09:23:36.292Z,25.52
2022-12-08T09:26:04.915Z,24.55
2022-12-08T09:28:32.015Z,25.98
2022-12-08T09:30:58.436Z,24.25
2022-12-08T09:33:24.921Z,23.20
2022-12-08T09:35:51.321Z,23.20
2022-12-08T09:38:17.752Z,22.20
2022-12-08T09:40:50.717Z,21.63
2022-12-08T09:43:19.898Z,19.48
2022-12-08T09:45:47.801Z,19.15
2022-12-08T09:48:19.381Z,19.33
2022-12-08T09:50:56.371Z,16.53
2022-12-08T09:53:28.312Z,16.40
2022-12-08T09:56:08.940Z,16.92
2022-12-08T09:58:50.246Z,16.92
2022-12-08T10:01:16.782Z,16.02
2022-12-08T10:03:43.262Z,15.05
2022-12-08T10:06:28.047Z,15.27
2022-12-08T10:09:24.021Z,16.02
2022-12-08T10:11:59.632Z,17.02
2022-12-08T10:14:44.728Z,16.92
2022-12-08T10:17:26.199Z,16.60
2022-12-08T10:19:59.607Z,16.48
2022-12-08T10:22:29.230Z,16.27
2022-12-08T10:25:01.702Z,15.57
2022-12-08T10:29:54.517Z,15.68
2022-12-08T10:32:23.282Z,16.23
2022-12-08T10:35:10.885Z,17.77
2022-12-08T10:37:37.296Z,16.02
2022-12-08T10:40:12.644Z,16.00
2022-12-08T10:42:42.573Z,15.30
2022-12-08T10:45:08.896Z,16.75
2022-12-08T10:47:37.468Z,16.40
2022-12-08T10:50:20.768Z,16.65
2022-12-08T10:52:59.504Z,15.80
2022-12-08T10:55:28.518Z,15.45
2022-12-08T10:57:55.221Z,14.50
2022-12-08T11:00:26.113Z,15.52
2022-12-08T11:02:57.400Z,15.73
2022-12-08T11:05:27.513Z,13.95
2022-12-08T11:07:55.168Z,14.45
2022-12-08T11:10:32.596Z,14.77
2022-12-08T11:13:01.749Z,14.57
2022-12-08T11:15:33.970Z,14.43
2022-12-08T11:18:03.128Z,13.20
2022-12-08T11:20:38.838Z,14.05
2022-12-08T11:23:18.982Z,14.65
2022-12-08T11:25:45.436Z,14.43
2022-12-08T11:28:12.184Z,14.82
2022-12-08T11:30:43.314Z,14.20
2022-12-08T11:33:22.516Z,13.77
2022-12-08T11:36:00.014Z,13.35
2022-12-08T11:38:27.708Z,13.98
2022-12-08T11:41:04.659Z,13.77
2022-12-08T11:43:34.096Z,14.15
2022-12-08T11:46:11.128Z,14.18
2022-12-08T11:48:53.131Z,12.60
2022-12-08T11:51:30.413Z,13.50
2022-12-08T11:54:23.020Z,12.70
2022-12-08T11:57:01.035Z,13.35
2022-12-08T11:59:33.365Z,13.38
2022-12-08T12:02:01.396Z,12.55
2022-12-08T12:04:33.478Z,12.38
2022-12-08T12:07:12.035Z,12.40
2022-12-08T12:09:47.383Z,13.23
2022-12-08T12:12:36.401Z,11.75
2022-12-08T12:15:40.256Z,12.75
2022-12-08T12:18:29.161Z,11.05
2022-12-08T12:20:57.558Z,11.05
2022-12-08T12:23:37.254Z,11.52
2022-12-08T12:26:06.522Z,11.23
2022-12-08T12:29:03.309Z,11.65
2022-12-08T12:31:33.123Z,13.35
2022-12-08T12:34:27.032Z,13.45
2022-12-08T12:37:14.591Z,10.50
2022-12-08T12:39:55.091Z,11.02
2022-12-08T12:43:09.713Z,11.05
2022-12-08T12:45:43.317Z,9.98
2022-12-08T12:48:09.680Z,11.02
2022-12-08T12:50:47.156Z,10.27
2022-12-08T12:53:16.515Z,11.50
2022-12-08T12:55:46.040Z,12.15
2022-12-08T12:58:27.859Z,11.73
2022-12-08T13:01:12.891Z,10.83
2022-12-08T13:03:41.687Z,10.85
2022-12-08T13:06:14.572Z,10.73
2022-12-08T13:08:50.261Z,10.35
2022-12-08T13:11:16.717Z,10.77
2022-12-08T13:14:03.693Z,9.82
2022-12-08T13:16:37.658Z,8.57
2022-12-08T13:19:05.330Z,8.95
2022-12-08T13:21:34.546Z,8.90
2022-12-08T13:24:10.077Z,7.70
2022-12-08T13:26:49.274Z,7.30
2022-12-08T13:29:25.725Z,6.50
2022-12-08T13:32:03.814Z,6.13
2022-12-08T13:34:34.433Z,6.18
2022-12-08T13:37:15.803Z,5.93
2022-12-08T13:39:48.020Z,6.15
2022-12-08T13:42:32.743Z,5.70
2022-12-08T13:45:27.882Z,6.40
2022-12-08T13:59:30.153Z,6.95
2022-12-08T14:01:59.606Z,8.68
2022-12-08T14:04:54.455Z,11.77
2022-12-08T14:07:13.797Z,10.23
2022-12-08T14:09:40.705Z,10.07
2022-12-08T14:12:26.625Z,11.00
2022-12-08T14:15:05.965Z,9.07
2022-12-08T14:17:33.264Z,8.80
2022-12-08T14:20:06.839Z,9.70
2022-12-08T14:22:35.250Z,9.20
2022-12-08T14:25:02.771Z,8.57
2022-12-08T14:27:35.097Z,8.50
2022-12-08T14:30:25.160Z,8.05
2022-12-08T14:32:54.484Z,8.35
2022-12-08T14:35:25.034Z,8.32
2022-12-08T14:37:55.058Z,7.78
2022-12-08T14:40:29.566Z,8.63
2022-12-08T14:43:08.050Z,8.88
2022-12-08T14:45:40.616Z,8.45
2022-12-08T14:51:03.220Z,8.27
2022-12-08T14:53:39.999Z,8.70
2022-12-08T14:56:31.235Z,8.30
2022-12-08T14:59:19.458Z,9.63
2022-12-08T15:01:46.965Z,8.43
2022-12-08T15:04:13.356Z,9.02
2022-12-08T15:07:06.111Z,8.88
2022-12-08T15:09:38.617Z,9.07
2022-12-08T15:14:37.628Z,9.15
2022-12-08T15:17:32.672Z,9.03
2022-12-08T15:20:00.422Z,9.52
2022-12-08T15:22:27.730Z,9.40
2022-12-08T15:24:54.360Z,9.18
2022-12-08T15:27:23.380Z,10.00
2022-12-08T15:29:50.053Z,9.63
2022-12-08T15:32:21.932Z,10.98
2022-12-08T15:34:48.585Z,10.38
2022-12-08T15:37:26.520Z,11.57
2022-12-08T15:39:53.302Z,11.55
2022-12-08T15:42:19.908Z,12.10
2022-12-08T15:44:46.313Z,12.80
2022-12-08T15:47:16.461Z,13.05
2022-12-08T15:49:44.305Z,13.93
2022-12-08T15:52:19.959Z,14.65
2022-12-08T15:54:46.616Z,14.05
2022-12-08T16:00:53.844Z,12.07
2022-12-08T16:09:13.634Z,12.38
2022-12-08T16:12:08.307Z,11.45
2022-12-08T16:17:22.462Z,11.57
2022-12-08T16:19:50.743Z,12.02
2022-12-08T16:25:22.433Z,12.90
2022-12-08T16:28:02.869Z,17.50
2022-12-08T16:30:35.178Z,15.30
2022-12-08T16:33:01.699Z,17.52
2022-12-08T16:35:28.291Z,15.15
2022-12-08T16:37:54.657Z,15.77
2022-12-08T16:40:21.208Z,14.38
2022-12-08T16:42:49.705Z,13.55
2022-12-08T16:45:21.853Z,12.88
2022-12-08T16:47:59.664Z,13.65
2022-12-08T16:50:28.877Z,14.85
2022-12-08T16:53:00.598Z,15.00
2022-12-08T16:55:27.442Z,15.63
2022-12-08T16:57:54.144Z,17.05
2022-12-08T17:00:22.666Z,15.85
2022-12-08T17:02:49.762Z,16.02
2022-12-08T17:05:19.095Z,16.75
2022-12-08T17:07:47.208Z,18.02
2022-12-08T17:10:17.217Z,18.10
2022-12-08T17:12:43.942Z,18.02
2022-12-08T17:15:14.121Z,19.23
2022-12-08T17:17:40.507Z,18.00
2022-12-08T17:20:12.154Z,18.02
2022-12-08T17:22:38.715Z,13.40
2022-12-08T17:25:05.997Z,18.40
2022-12-08T17:27:32.432Z,19.17
2022-12-08T17:29:58.806Z,18.80
2022-12-08T17:32:25.367Z,18.95
2022-12-08T17:34:51.798Z,20.15
2022-12-08T17:37:18.680Z,20.17
2022-12-08T17:39:45.163Z,20.80
2022-12-08T17:42:11.533Z,20.00
2022-12-08T17:44:37.990Z,19.63
2022-12-08T17:47:05.029Z,18.40
2022-12-08T17:49:32.761Z,20.60
2022-12-08T17:52:01.552Z,21.35
2022-12-08T17:54:28.810Z,19.55
2022-12-08T17:56:58.400Z,19.27
2022-12-08T17:59:26.084Z,19.88
2022-12-08T18:01:53.785Z,18.35
2022-12-08T18:04:20.377Z,20.33
2022-12-08T18:06:46.831Z,19.17
2022-12-08T18:09:14.071Z,19.17
2022-12-08T18:11:41.292Z,17.42
2022-12-08T18:14:11.084Z,17.80
2022-12-08T18:16:39.688Z,18.67
2022-12-08T18:19:06.904Z,17.45
2022-12-08T18:21:33.537Z,16.67
2022-12-08T18:24:00.087Z,16.88
2022-12-08T18:26:26.639Z,17.33
2022-12-08T18:28:53.004Z,17.08
2022-12-08T18:31:20.637Z,17.13
2022-12-08T18:33:47.889Z,18.02
2022-12-08T18:36:16.882Z,18.27
2022-12-08T18:38:43.454Z,21.33
2022-12-08T18:41:12.113Z,18.95
2022-12-08T18:43:39.088Z,18.85
2022-12-08T18:46:09.652Z,18.48
2022-12-08T18:48:37.648Z,18.70
2022-12-08T18:51:05.776Z,18.13
2022-12-08T18:53:32.222Z,17.15
2022-12-08T18:55:58.591Z,17.15
2022-12-08T18:58:24.964Z,16.23
2022-12-08T19:00:51.339Z,16.95
2022-12-08T19:03:17.702Z,16.17
2022-12-08T19:05:44.117Z,17.08
2022-12-08T19:08:10.552Z,17.10
2022-12-08T19:10:38.107Z,16.83
2022-12-08T19:13:06.052Z,16.27
2022-12-08T19:15:33.675Z,17.27
2022-12-08T19:18:00.735Z,18.77
2022-12-08T19:20:27.736Z,19.70
2022-12-08T19:22:54.510Z,20.33
2022-12-08T19:25:21.759Z,21.95
2022-12-08T19:27:48.206Z,25.05
2022-12-08T19:30:14.908Z,26.92
2022-12-08T19:32:41.296Z,24.73
2022-12-08T19:35:08.018Z,23.20
2022-12-08T19:37:35.068Z,21.05
2022-12-08T19:40:19.860Z,20.23
2022-12-08T19:43:04.832Z,19.58
2022-12-08T19:45:31.478Z,19.15
2022-12-08T19:47:57.939Z,20.23
2022-12-08T19:50:36.202Z,21.00
2022-12-08T19:53:07.729Z,20.25
2022-12-08T19:55:34.408Z,21.63
2022-12-08T19:58:01.842Z,22.42
2022-12-08T20:00:29.603Z,22.27
2022-12-08T20:02:56.759Z,20.60
2022-12-08T20:05:23.847Z,20.77
2022-12-08T20:07:50.544Z,20.35
2022-12-08T20:10:23.681Z,20.75
2022-12-08T20:12:50.071Z,20.58
2022-12-08T20:15:16.646Z,20.50
2022-12-08T20:17:43.421Z,20.73
2022-12-08T20:20:12.086Z,22.08
2022-12-08T20:22:38.605Z,21.35
2022-12-08T20:25:05.345Z,19.35
2022-12-08T20:27:35.039Z,18.88
2022-12-08T20:30:01.538Z,19.77
2022-12-08T20:32:27.927Z,19.55
2022-12-08T20:34:54.352Z,19.70
2022-12-08T20:37:20.737Z,20.33
2022-12-08T20:39:47.142Z,22.13
2022-12-08T20:42:13.880Z,24.02
2022-12-08T20:44:44.311Z,22.55
2022-12-08T20:47:11.961Z,22.33
2022-12-08T20:49:38.681Z,22.92
2022-12-08T20:52:05.295Z,22.60
2022-12-08T20:54:31.869Z,22.52
2022-12-08T20:56:58.249Z,22.95
2022-12-08T20:59:26.373Z,23.35
2022-12-08T21:01:53.894Z,23.50
2022-12-08T21:04:21.221Z,23.83
2022-12-08T21:06:48.103Z,23.30
2022-12-08T21:09:14.620Z,23.95
2022-12-08T21:11:41.328Z,23.70
2022-12-08T21:14:07.721Z,25.27
2022-12-08T21:16:34.324Z,23.95
2022-12-08T21:19:00.918Z,24.58
2022-12-08T21:21:27.453Z,25.10
2022-12-08T21:23:53.895Z,25.65
2022-12-08T21:26:23.265Z,25.00
2022-12-08T21:28:49.803Z,24.58
2022-12-08T21:31:18.449Z,25.92
2022-12-08T21:33:45.428Z,25.13
2022-12-08T21:36:16.855Z,26.20
2022-12-08T21:38:44.276Z,25.10
2022-12-08T21:41:13.577Z,26.38
2022-12-08T21:43:40.529Z,26.27
2022-12-08T21:46:06.962Z,28.10
2022-12-08T21:48:33.643Z,28.88
2022-12-08T21:51:04.847Z,28.67
2022-12-08T21:53:31.401Z,27.98
2022-12-08T21:55:57.799Z,29.75
2022-12-08T21:58:24.219Z,28.63
2022-12-08T22:00:50.752Z,29.42
2022-12-08T22:03:17.676Z,30.48
2022-12-08T22:05:44.381Z,29.33
2022-12-08T22:08:10.850Z,30.45
2022-12-08T22:10:38.347Z,30.08
2022-12-08T22:13:04.967Z,28.33
2022-12-08T22:15:32.712Z,27.88
2022-12-08T22:17:59.328Z,26.52
2022-12-08T22:20:26.009Z,25.95
2022-12-08T22:22:52.715Z,26.67
2022-12-08T22:25:19.560Z,24.80
2022-12-08T22:27:46.299Z,24.33
2022-12-08T22:30:13.311Z,23.15
2022-12-08T22:32:40.224Z,22.65
2022-12-08T22:35:07.265Z,22.13
2022-12-08T22:37:34.198Z,21.05
2022-12-08T22:40:00.778Z,21.98
2022-12-08T22:42:27.659Z,20.25
2022-12-08T22:44:54.239Z,18.73
2022-12-08T22:47:20.794Z,19.73
2022-12-08T22:49:47.368Z,26.15
2022-12-08T22:52:14.098Z,26.63
2022-12-08T22:54:40.673Z,31.45
2022-12-08T22:57:07.148Z,34.08
2022-12-08T22:59:34.607Z,34.72
2022-12-08T23:02:01.196Z,33.70
2022-12-08T23:04:28.129Z,33.20
2022-12-08T23:06:54.665Z,32.95
2022-12-08T23:09:21.484Z,31.30
2022-12-08T23:11:48.014Z,29.88
2022-12-08T23:14:14.454Z,30.63
2022-12-08T23:16:41.083Z,31.27
2022-12-08T23:19:07.796Z,31.80
2022-12-08T23:21:34.155Z,31.75
2022-12-08T23:24:01.447Z,30.85
2022-12-08T23:26:29.449Z,29.60
2022-12-08T23:28:56.983Z,29.85
2022-12-08T23:31:24.423Z,31.50
2022-12-08T23:33:51.190Z,30.15
2022-12-08T23:36:19.398Z,27.65
2022-12-08T23:38:46.292Z,32.63
2022-12-08T23:41:14.917Z,33.72
2022-12-08T23:43:46.355Z,34.10
2022-12-08T23:46:13.317Z,29.90
2022-12-08T23:48:39.998Z,31.33
2022-12-08T23:51:06.486Z,31.13
2022-12-08T23:53:33.462Z,36.50
2022-12-08T23:56:08.225Z,35.08
2022-12-08T23:58:35.144Z,36.85
